sensor_id;sensor_type;location;lat;lon;timestamp;pressure;altitude;pressure_sealevel;temperature;humidity
21185;BME280;18176;49.502;11.754;2023-07-22T00:00:13;96864.00;;;17.28;79.04
21185;BME280;18176;49.502;11.754;2023-07-22T00:04:15;96856.78;;;17.19;79.48
21185;BME280;18176;49.502;11.754;2023-07-22T00:08:18;96866.66;;;17.28;79.10
21185;BME280;18176;49.502;11.754;2023-07-22T00:12:20;96877.09;;;17.35;78.65
21185;BME280;18176;49.502;11.754;2023-07-22T00:16:23;96876.34;;;17.24;79.34
21185;BME280;18176;49.502;11.754;2023-07-22T00:20:23;96870.41;;;17.27;79.43
21185;BME280;18176;49.502;11.754;2023-07-22T00:24:27;96872.31;;;17.22;79.69
21185;BME280;18176;49.502;11.754;2023-07-22T00:28:27;96860.19;;;17.39;78.70
21185;BME280;18176;49.502;11.754;2023-07-22T00:32:28;96855.91;;;17.38;78.61
21185;BME280;18176;49.502;11.754;2023-07-22T00:36:28;96866.59;;;17.38;78.79
21185;BME280;18176;49.502;11.754;2023-07-22T00:40:32;96870.88;;;17.49;78.70
21185;BME280;18176;49.502;11.754;2023-07-22T00:44:33;96867.13;;;17.56;79.07
21185;BME280;18176;49.502;11.754;2023-07-22T00:48:33;96868.34;;;17.78;78.37
21185;BME280;18176;49.502;11.754;2023-07-22T00:52:35;96851.97;;;17.80;77.53
21185;BME280;18176;49.502;11.754;2023-07-22T00:56:40;96838.63;;;17.75;76.56
21185;BME280;18176;49.502;11.754;2023-07-22T01:00:42;96851.00;;;17.61;77.02
21185;BME280;18176;49.502;11.754;2023-07-22T01:04:43;96855.88;;;17.48;77.68
21185;BME280;18176;49.502;11.754;2023-07-22T01:08:44;96838.28;;;17.27;78.21
21185;BME280;18176;49.502;11.754;2023-07-22T01:12:47;96832.94;;;17.22;78.34
21185;BME280;18176;49.502;11.754;2023-07-22T01:16:48;96842.59;;;17.18;78.18
21185;BME280;18176;49.502;11.754;2023-07-22T01:20:51;96845.31;;;17.08;78.81
21185;BME280;18176;49.502;11.754;2023-07-22T01:24:54;96825.50;;;17.04;78.04
21185;BME280;18176;49.502;11.754;2023-07-22T01:29:04;96831.16;;;16.93;79.21
21185;BME280;18176;49.502;11.754;2023-07-22T01:33:04;96838.16;;;16.83;78.79
21185;BME280;18176;49.502;11.754;2023-07-22T01:37:05;96845.41;;;16.78;78.82
21185;BME280;18176;49.502;11.754;2023-07-22T01:41:09;96837.38;;;16.68;79.16
21185;BME280;18176;49.502;11.754;2023-07-22T01:45:10;96839.53;;;16.66;78.96
21185;BME280;18176;49.502;11.754;2023-07-22T01:49:12;96839.00;;;16.64;79.12
21185;BME280;18176;49.502;11.754;2023-07-22T01:53:13;96837.94;;;16.60;79.78
21185;BME280;18176;49.502;11.754;2023-07-22T01:57:17;96834.72;;;16.58;79.52
21185;BME280;18176;49.502;11.754;2023-07-22T02:01:18;96836.84;;;16.61;79.33
21185;BME280;18176;49.502;11.754;2023-07-22T02:05:18;96807.97;;;16.48;79.46
21185;BME280;18176;49.502;11.754;2023-07-22T02:09:19;96829.34;;;16.48;79.82
21185;BME280;18176;49.502;11.754;2023-07-22T02:13:23;96829.88;;;16.35;80.10
21185;BME280;18176;49.502;11.754;2023-07-22T02:17:23;96840.84;;;16.33;79.98
21185;BME280;18176;49.502;11.754;2023-07-22T02:21:24;96835.50;;;16.28;80.67
21185;BME280;18176;49.502;11.754;2023-07-22T02:25:25;96836.59;;;16.32;80.07
21185;BME280;18176;49.502;11.754;2023-07-22T02:29:29;96843.78;;;16.16;80.59
21185;BME280;18176;49.502;11.754;2023-07-22T02:33:30;96849.13;;;16.16;80.48
21185;BME280;18176;49.502;11.754;2023-07-22T02:37:31;96850.75;;;16.17;80.50
21185;BME280;18176;49.502;11.754;2023-07-22T02:41:31;96854.50;;;16.11;80.73
21185;BME280;18176;49.502;11.754;2023-07-22T02:45:35;96851.81;;;16.22;80.33
21185;BME280;18176;49.502;11.754;2023-07-22T02:49:36;96856.09;;;16.17;80.84
21185;BME280;18176;49.502;11.754;2023-07-22T02:53:37;96847.56;;;16.15;80.40
21185;BME280;18176;49.502;11.754;2023-07-22T02:57:40;96845.41;;;15.97;81.33
21185;BME280;18176;49.502;11.754;2023-07-22T03:01:43;96859.78;;;15.86;81.69
21185;BME280;18176;49.502;11.754;2023-07-22T03:05:46;96867.81;;;15.81;82.05
21185;BME280;18176;49.502;11.754;2023-07-22T03:09:46;96853.94;;;15.89;81.96
21185;BME280;18176;49.502;11.754;2023-07-22T03:13:47;96868.84;;;15.70;82.90
21185;BME280;18176;49.502;11.754;2023-07-22T03:17:50;96866.72;;;15.72;82.40
21185;BME280;18176;49.502;11.754;2023-07-22T03:21:51;96866.72;;;15.67;82.42
21185;BME280;18176;49.502;11.754;2023-07-22T03:25:52;96868.84;;;15.65;82.22
21185;BME280;18176;49.502;11.754;2023-07-22T03:29:53;96868.28;;;15.58;82.41
21185;BME280;18176;49.502;11.754;2023-07-22T03:33:55;96886.19;;;15.63;82.15
21185;BME280;18176;49.502;11.754;2023-07-22T03:37:56;96891.78;;;15.56;82.40
21185;BME280;18176;49.502;11.754;2023-07-22T03:41:56;96888.09;;;15.67;82.02
21185;BME280;18176;49.502;11.754;2023-07-22T03:45:57;96889.13;;;15.61;82.14
21185;BME280;18176;49.502;11.754;2023-07-22T03:50:00;96885.91;;;15.59;82.13
21185;BME280;18176;49.502;11.754;2023-07-22T03:54:01;96893.44;;;15.67;82.14
21185;BME280;18176;49.502;11.754;2023-07-22T03:58:02;96884.38;;;15.78;81.89
21185;BME280;18176;49.502;11.754;2023-07-22T04:02:04;96893.47;;;15.87;81.29
21185;BME280;18176;49.502;11.754;2023-07-22T04:06:07;96902.78;;;15.80;81.57
21185;BME280;18176;49.502;11.754;2023-07-22T04:10:08;96902.81;;;15.85;81.85
21185;BME280;18176;49.502;11.754;2023-07-22T04:14:09;96907.63;;;15.83;82.11
21185;BME280;18176;49.502;11.754;2023-07-22T04:18:10;96910.78;;;15.75;82.59
21185;BME280;18176;49.502;11.754;2023-07-22T04:22:15;96902.31;;;15.93;82.34
21185;BME280;18176;49.502;11.754;2023-07-22T04:26:15;96913.03;;;16.13;81.72
21185;BME280;18176;49.502;11.754;2023-07-22T04:30:17;96910.38;;;16.33;81.01
21185;BME280;18176;49.502;11.754;2023-07-22T04:34:18;96917.88;;;16.36;80.84
21185;BME280;18176;49.502;11.754;2023-07-22T04:38:22;96929.63;;;16.30;81.06
21185;BME280;18176;49.502;11.754;2023-07-22T04:42:23;96923.47;;;16.35;80.61
21185;BME280;18176;49.502;11.754;2023-07-22T04:46:25;96929.91;;;16.39;80.61
21185;BME280;18176;49.502;11.754;2023-07-22T04:50:26;96935.81;;;16.51;80.54
21185;BME280;18176;49.502;11.754;2023-07-22T04:54:30;96933.16;;;16.76;79.73
21185;BME280;18176;49.502;11.754;2023-07-22T04:58:31;96928.31;;;16.83;78.73
21185;BME280;18176;49.502;11.754;2023-07-22T05:02:32;96929.94;;;16.84;79.26
21185;BME280;18176;49.502;11.754;2023-07-22T05:06:34;96931.53;;;16.95;78.74
21185;BME280;18176;49.502;11.754;2023-07-22T05:10:37;96938.22;;;17.08;78.40
21185;BME280;18176;49.502;11.754;2023-07-22T05:14:38;96937.94;;;17.19;77.98
21185;BME280;18176;49.502;11.754;2023-07-22T05:18:38;96944.84;;;17.30;77.55
21185;BME280;18176;49.502;11.754;2023-07-22T05:22:40;96946.94;;;17.48;76.34
21185;BME280;18176;49.502;11.754;2023-07-22T05:26:44;96944.19;;;17.74;75.95
21185;BME280;18176;49.502;11.754;2023-07-22T05:30:59;96947.66;;;17.79;76.20
21185;BME280;18176;49.502;11.754;2023-07-22T05:35:00;96939.19;;;18.11;74.03
21185;BME280;18176;49.502;11.754;2023-07-22T05:39:02;96944.53;;;18.60;74.18
21185;BME280;18176;49.502;11.754;2023-07-22T05:43:06;96938.38;;;19.17;71.80
21185;BME280;18176;49.502;11.754;2023-07-22T05:47:06;96938.72;;;19.39;70.96
21185;BME280;18176;49.502;11.754;2023-07-22T05:51:07;96945.00;;;19.53;68.28
21185;BME280;18176;49.502;11.754;2023-07-22T05:55:08;96943.63;;;19.79;68.34
21185;BME280;18176;49.502;11.754;2023-07-22T05:59:11;96949.31;;;19.96;66.69
21185;BME280;18176;49.502;11.754;2023-07-22T06:03:19;96957.66;;;20.18;65.88
21185;BME280;18176;49.502;11.754;2023-07-22T06:07:19;96959.69;;;20.26;64.74
21185;BME280;18176;49.502;11.754;2023-07-22T06:11:20;96961.53;;;20.50;63.84
21185;BME280;18176;49.502;11.754;2023-07-22T06:15:23;96963.91;;;20.70;62.90
21185;BME280;18176;49.502;11.754;2023-07-22T06:19:24;96960.13;;;20.71;63.09
21185;BME280;18176;49.502;11.754;2023-07-22T06:23:25;96962.75;;;20.76;61.49
21185;BME280;18176;49.502;11.754;2023-07-22T06:27:25;96962.81;;;21.03;60.94
21185;BME280;18176;49.502;11.754;2023-07-22T06:31:28;96972.19;;;21.24;59.05
21185;BME280;18176;49.502;11.754;2023-07-22T06:35:29;96965.75;;;21.80;58.13
21185;BME280;18176;49.502;11.754;2023-07-22T06:39:30;96970.16;;;22.16;54.90
21185;BME280;18176;49.502;11.754;2023-07-22T06:43:30;96974.13;;;22.32;54.25
21185;BME280;18176;49.502;11.754;2023-07-22T06:47:33;96969.41;;;22.74;54.16
21185;BME280;18176;49.502;11.754;2023-07-22T06:51:34;96985.03;;;22.63;51.66
21185;BME280;18176;49.502;11.754;2023-07-22T06:55:34;96987.16;;;22.53;51.60
21185;BME280;18176;49.502;11.754;2023-07-22T06:59:35;96984.69;;;22.29;50.00
21185;BME280;18176;49.502;11.754;2023-07-22T07:03:39;96986.63;;;22.15;50.49
21185;BME280;18176;49.502;11.754;2023-07-22T07:07:40;96992.53;;;21.90;49.98
21185;BME280;18176;49.502;11.754;2023-07-22T07:11:41;96989.75;;;21.95;50.72
21185;BME280;18176;49.502;11.754;2023-07-22T07:15:45;96999.34;;;22.01;51.10
21185;BME280;18176;49.502;11.754;2023-07-22T07:19:49;97005.34;;;21.98;50.61
21185;BME280;18176;49.502;11.754;2023-07-22T07:23:50;97013.09;;;22.26;50.16
21185;BME280;18176;49.502;11.754;2023-07-22T07:27:51;97020.22;;;22.09;50.27
21185;BME280;18176;49.502;11.754;2023-07-22T07:31:52;97019.13;;;22.10;51.05
21185;BME280;18176;49.502;11.754;2023-07-22T07:35:55;97027.91;;;21.88;50.12
21185;BME280;18176;49.502;11.754;2023-07-22T07:39:56;97039.06;;;21.54;50.20
21185;BME280;18176;49.502;11.754;2023-07-22T07:43:57;97035.66;;;21.62;49.42
21185;BME280;18176;49.502;11.754;2023-07-22T07:47:58;97045.06;;;21.79;49.63
21185;BME280;18176;49.502;11.754;2023-07-22T07:52:01;97043.78;;;22.44;48.33
21185;BME280;18176;49.502;11.754;2023-07-22T07:56:01;97042.06;;;22.62;47.78
21185;BME280;18176;49.502;11.754;2023-07-22T08:00:03;97046.88;;;22.51;48.13
21185;BME280;18176;49.502;11.754;2023-07-22T08:04:06;97053.31;;;22.14;48.22
21185;BME280;18176;49.502;11.754;2023-07-22T08:08:09;97048.09;;;22.31;47.95
21185;BME280;18176;49.502;11.754;2023-07-22T08:12:10;97046.50;;;21.90;48.17
21185;BME280;18176;49.502;11.754;2023-07-22T08:16:13;97050.53;;;21.74;48.70
21185;BME280;18176;49.502;11.754;2023-07-22T08:20:15;97050.09;;;21.99;48.63
21185;BME280;18176;49.502;11.754;2023-07-22T08:24:19;97050.06;;;22.67;47.16
21185;BME280;18176;49.502;11.754;2023-07-22T08:28:19;97040.84;;;23.26;46.08
21185;BME280;18176;49.502;11.754;2023-07-22T08:32:20;97045.63;;;23.73;44.84
21185;BME280;18176;49.502;11.754;2023-07-22T08:36:20;97042.94;;;23.29;45.62
21185;BME280;18176;49.502;11.754;2023-07-22T08:40:24;97058.25;;;23.33;45.75
21185;BME280;18176;49.502;11.754;2023-07-22T08:44:32;97057.13;;;23.12;46.32
21185;BME280;18176;49.502;11.754;2023-07-22T08:48:36;97053.59;;;22.89;46.78
21185;BME280;18176;49.502;11.754;2023-07-22T08:52:41;97052.47;;;22.68;47.15
21185;BME280;18176;49.502;11.754;2023-07-22T08:56:46;97051.25;;;22.74;47.18
21185;BME280;18176;49.502;11.754;2023-07-22T09:00:48;97058.53;;;22.87;47.44
21185;BME280;18176;49.502;11.754;2023-07-22T09:04:48;97054.97;;;23.00;47.18
21185;BME280;18176;49.502;11.754;2023-07-22T09:08:49;97057.31;;;23.16;46.13
21185;BME280;18176;49.502;11.754;2023-07-22T09:12:53;97053.28;;;23.27;46.50
21185;BME280;18176;49.502;11.754;2023-07-22T09:16:54;97045.03;;;23.10;46.02
21185;BME280;18176;49.502;11.754;2023-07-22T09:20:55;97043.94;;;23.11;45.30
21185;BME280;18176;49.502;11.754;2023-07-22T09:25:13;97048.00;;;23.74;44.81
21185;BME280;18176;49.502;11.754;2023-07-22T09:29:17;97039.56;;;24.72;43.44
21185;BME280;18176;49.502;11.754;2023-07-22T09:33:21;97043.41;;;25.39;42.14
21185;BME280;18176;49.502;11.754;2023-07-22T09:37:37;97037.94;;;25.73;40.45
21185;BME280;18176;49.502;11.754;2023-07-22T09:41:42;96997.63;;;25.29;39.83
21185;BME280;18176;49.502;11.754;2023-07-22T09:45:47;97036.41;;;25.04;40.85
21185;BME280;18176;49.502;11.754;2023-07-22T09:49:50;97028.94;;;26.98;38.32
21185;BME280;18176;49.502;11.754;2023-07-22T09:54:02;97006.59;;;28.39;35.42
21185;BME280;18176;49.502;11.754;2023-07-22T09:58:04;97030.72;;;29.72;32.88
21185;BME280;18176;49.502;11.754;2023-07-22T10:02:11;97021.59;;;31.12;31.88
21185;BME280;18176;49.502;11.754;2023-07-22T10:06:14;97006.97;;;32.56;29.81
21185;BME280;18176;49.502;11.754;2023-07-22T10:10:18;97013.06;;;33.65;28.93
21185;BME280;18176;49.502;11.754;2023-07-22T10:14:20;97013.25;;;32.87;27.91
21185;BME280;18176;49.502;11.754;2023-07-22T10:18:24;96994.28;;;32.75;28.13
21185;BME280;18176;49.502;11.754;2023-07-22T10:22:26;96987.22;;;31.53;29.22
21185;BME280;18176;49.502;11.754;2023-07-22T10:26:29;96983.59;;;30.38;30.24
21185;BME280;18176;49.502;11.754;2023-07-22T10:30:44;96976.19;;;30.07;31.03
21185;BME280;18176;49.502;11.754;2023-07-22T10:34:48;96961.44;;;30.43;30.82
21185;BME280;18176;49.502;11.754;2023-07-22T10:38:56;96965.50;;;32.09;28.08
21185;BME280;18176;49.502;11.754;2023-07-22T10:43:05;96962.28;;;33.96;25.54
21185;BME280;18176;49.502;11.754;2023-07-22T10:47:09;96963.44;;;34.42;24.42
21185;BME280;18176;49.502;11.754;2023-07-22T10:51:15;96953.91;;;34.26;24.63
21185;BME280;18176;49.502;11.754;2023-07-22T10:55:19;96947.31;;;33.86;24.95
21185;BME280;18176;49.502;11.754;2023-07-22T10:59:27;96956.75;;;32.52;26.60
21185;BME280;18176;49.502;11.754;2023-07-22T11:03:28;96955.47;;;32.20;26.30
21185;BME280;18176;49.502;11.754;2023-07-22T11:07:43;96941.13;;;32.04;26.30
21185;BME280;18176;49.502;11.754;2023-07-22T11:11:45;96944.94;;;33.08;26.05
21185;BME280;18176;49.502;11.754;2023-07-22T11:15:47;96928.75;;;34.27;24.21
21185;BME280;18176;49.502;11.754;2023-07-22T11:19:48;96936.81;;;32.89;26.08
21185;BME280;18176;49.502;11.754;2023-07-22T11:23:51;96918.84;;;33.28;25.20
21185;BME280;18176;49.502;11.754;2023-07-22T11:27:52;96916.13;;;30.61;28.82
21185;BME280;18176;49.502;11.754;2023-07-22T11:31:53;96914.00;;;29.69;30.14
21185;BME280;18176;49.502;11.754;2023-07-22T11:35:55;96920.81;;;29.75;30.09
21185;BME280;18176;49.502;11.754;2023-07-22T11:40:05;96908.28;;;30.25;29.28
21185;BME280;18176;49.502;11.754;2023-07-22T11:44:06;96916.31;;;28.81;30.56
21185;BME280;18176;49.502;11.754;2023-07-22T11:48:12;96923.03;;;28.31;31.87
21185;BME280;18176;49.502;11.754;2023-07-22T11:52:17;96916.97;;;26.96;33.36
21185;BME280;18176;49.502;11.754;2023-07-22T11:56:26;96914.50;;;26.91;33.51
21185;BME280;18176;49.502;11.754;2023-07-22T12:00:27;96909.88;;;27.61;33.40
21185;BME280;18176;49.502;11.754;2023-07-22T12:04:31;96910.56;;;27.82;33.24
21185;BME280;18176;49.502;11.754;2023-07-22T12:08:34;96909.31;;;27.67;33.76
21185;BME280;18176;49.502;11.754;2023-07-22T12:12:40;96900.31;;;29.38;31.94
21185;BME280;18176;49.502;11.754;2023-07-22T12:16:42;96889.91;;;30.60;29.87
21185;BME280;18176;49.502;11.754;2023-07-22T12:20:43;96880.81;;;31.13;29.00
21185;BME280;18176;49.502;11.754;2023-07-22T12:24:43;96862.56;;;32.45;28.16
21185;BME280;18176;49.502;11.754;2023-07-22T12:28:50;96881.56;;;33.27;25.68
21185;BME280;18176;49.502;11.754;2023-07-22T12:32:50;96877.41;;;33.03;26.23
21185;BME280;18176;49.502;11.754;2023-07-22T12:36:51;96873.91;;;32.73;26.91
21185;BME280;18176;49.502;11.754;2023-07-22T12:40:51;96864.97;;;31.45;28.21
21185;BME280;18176;49.502;11.754;2023-07-22T12:44:55;96858.78;;;31.29;28.01
21185;BME280;18176;49.502;11.754;2023-07-22T12:48:56;96848.81;;;32.75;26.58
21185;BME280;18176;49.502;11.754;2023-07-22T12:52:56;96836.47;;;34.37;25.21
21185;BME280;18176;49.502;11.754;2023-07-22T12:56:57;96813.00;;;34.64;24.86
21185;BME280;18176;49.502;11.754;2023-07-22T13:01:00;96843.91;;;34.33;24.47
21185;BME280;18176;49.502;11.754;2023-07-22T13:05:01;96832.69;;;34.73;25.09
21185;BME280;18176;49.502;11.754;2023-07-22T13:09:01;96823.97;;;34.60;24.14
21185;BME280;18176;49.502;11.754;2023-07-22T13:13:01;96822.19;;;35.46;22.97
21185;BME280;18176;49.502;11.754;2023-07-22T13:17:05;96822.16;;;35.07;22.80
21185;BME280;18176;49.502;11.754;2023-07-22T13:21:06;96824.94;;;34.14;24.20
21185;BME280;18176;49.502;11.754;2023-07-22T13:25:08;96818.09;;;34.62;23.67
21185;BME280;18176;49.502;11.754;2023-07-22T13:29:09;96818.13;;;33.43;24.84
21185;BME280;18176;49.502;11.754;2023-07-22T13:33:12;96815.44;;;32.06;26.14
21185;BME280;18176;49.502;11.754;2023-07-22T13:37:14;96818.78;;;31.21;27.78
21185;BME280;18176;49.502;11.754;2023-07-22T13:41:15;96822.53;;;30.14;29.16
21185;BME280;18176;49.502;11.754;2023-07-22T13:45:16;96818.94;;;29.59;29.48
21185;BME280;18176;49.502;11.754;2023-07-22T13:49:19;96815.78;;;30.27;28.96
21185;BME280;18176;49.502;11.754;2023-07-22T13:53:19;96817.53;;;31.64;27.65
21185;BME280;18176;49.502;11.754;2023-07-22T13:57:20;96815.75;;;31.03;27.62
21185;BME280;18176;49.502;11.754;2023-07-22T14:01:20;96816.63;;;30.69;27.99
21185;BME280;18176;49.502;11.754;2023-07-22T14:05:24;96807.31;;;29.62;29.52
21185;BME280;18176;49.502;11.754;2023-07-22T14:09:28;96797.66;;;29.18;30.58
21185;BME280;18176;49.502;11.754;2023-07-22T14:13:29;96806.31;;;28.61;31.04
21185;BME280;18176;49.502;11.754;2023-07-22T14:17:29;96816.66;;;27.40;32.84
21185;BME280;18176;49.502;11.754;2023-07-22T14:21:34;96817.03;;;26.81;33.86
21185;BME280;18176;49.502;11.754;2023-07-22T14:25:35;96825.09;;;26.69;34.45
21185;BME280;18176;49.502;11.754;2023-07-22T14:29:36;96802.34;;;28.59;32.30
21185;BME280;18176;49.502;11.754;2023-07-22T14:33:36;96796.97;;;29.21;30.71
21185;BME280;18176;49.502;11.754;2023-07-22T14:37:39;96798.75;;;29.64;30.66
21185;BME280;18176;49.502;11.754;2023-07-22T14:41:41;96800.31;;;29.30;30.80
21185;BME280;18176;49.502;11.754;2023-07-22T14:45:42;96791.84;;;29.51;30.45
21185;BME280;18176;49.502;11.754;2023-07-22T14:49:43;96794.63;;;29.54;30.76
21185;BME280;18176;49.502;11.754;2023-07-22T14:53:46;96787.09;;;29.01;30.99
21185;BME280;18176;49.502;11.754;2023-07-22T14:57:47;96791.84;;;27.93;32.69
21185;BME280;18176;49.502;11.754;2023-07-22T15:01:48;96784.41;;;27.66;33.11
21185;BME280;18176;49.502;11.754;2023-07-22T15:05:48;96781.44;;;28.23;32.61
21185;BME280;18176;49.502;11.754;2023-07-22T15:09:52;96774.03;;;29.92;30.05
21185;BME280;18176;49.502;11.754;2023-07-22T15:13:53;96777.81;;;32.36;27.96
21185;BME280;18176;49.502;11.754;2023-07-22T15:17:54;96772.78;;;33.66;25.87
21185;BME280;18176;49.502;11.754;2023-07-22T15:21:54;96765.97;;;34.08;25.13
21185;BME280;18176;49.502;11.754;2023-07-22T15:25:59;96766.69;;;32.96;25.43
21185;BME280;18176;49.502;11.754;2023-07-22T15:30:00;96760.94;;;33.55;25.49
21185;BME280;18176;49.502;11.754;2023-07-22T15:34:01;96749.78;;;35.13;23.70
21185;BME280;18176;49.502;11.754;2023-07-22T15:38:01;96748.09;;;36.08;22.95
21185;BME280;18176;49.502;11.754;2023-07-22T15:42:07;96757.63;;;35.33;22.77
21185;BME280;18176;49.502;11.754;2023-07-22T15:46:10;96755.69;;;35.22;22.79
21185;BME280;18176;49.502;11.754;2023-07-22T15:50:11;96750.94;;;35.34;22.83
21185;BME280;18176;49.502;11.754;2023-07-22T15:54:11;96751.22;;;34.51;23.96
21185;BME280;18176;49.502;11.754;2023-07-22T15:58:15;96745.44;;;35.12;23.27
21185;BME280;18176;49.502;11.754;2023-07-22T16:02:17;96738.75;;;35.06;23.09
21185;BME280;18176;49.502;11.754;2023-07-22T16:06:18;96737.56;;;33.89;24.16
21185;BME280;18176;49.502;11.754;2023-07-22T16:10:32;96727.75;;;35.13;23.36
21185;BME280;18176;49.502;11.754;2023-07-22T16:14:35;96727.56;;;36.12;22.09
21185;BME280;18176;49.502;11.754;2023-07-22T16:18:36;96715.09;;;36.63;21.83
21185;BME280;18176;49.502;11.754;2023-07-22T16:22:37;96720.59;;;35.44;22.85
21185;BME280;18176;49.502;11.754;2023-07-22T16:26:38;96729.69;;;35.31;23.47
21185;BME280;18176;49.502;11.754;2023-07-22T16:30:41;96722.97;;;35.60;23.16
21185;BME280;18176;49.502;11.754;2023-07-22T16:34:41;96718.81;;;36.24;22.70
21185;BME280;18176;49.502;11.754;2023-07-22T16:38:42;96715.47;;;36.65;22.01
21185;BME280;18176;49.502;11.754;2023-07-22T16:42:43;96713.53;;;35.61;22.30
21185;BME280;18176;49.502;11.754;2023-07-22T16:46:50;96721.50;;;33.30;24.43
21185;BME280;18176;49.502;11.754;2023-07-22T16:50:50;96716.44;;;34.01;23.47
21185;BME280;18176;49.502;11.754;2023-07-22T16:54:51;96680.47;;;34.62;23.92
21185;BME280;18176;49.502;11.754;2023-07-22T16:58:52;96712.75;;;34.65;22.87
21185;BME280;18176;49.502;11.754;2023-07-22T17:02:57;96706.38;;;34.50;23.59
21185;BME280;18176;49.502;11.754;2023-07-22T17:07:00;96711.25;;;33.81;24.63
21185;BME280;18176;49.502;11.754;2023-07-22T17:11:02;96698.50;;;32.21;25.95
21185;BME280;18176;49.502;11.754;2023-07-22T17:15:04;96710.31;;;32.62;25.62
21185;BME280;18176;49.502;11.754;2023-07-22T17:19:07;96711.59;;;33.76;24.68
21185;BME280;18176;49.502;11.754;2023-07-22T17:23:08;96705.38;;;33.86;24.50
21185;BME280;18176;49.502;11.754;2023-07-22T17:27:09;96716.75;;;33.23;25.35
21185;BME280;18176;49.502;11.754;2023-07-22T17:31:10;96712.59;;;32.52;25.88
21185;BME280;18176;49.502;11.754;2023-07-22T17:35:14;96716.75;;;32.80;25.75
21185;BME280;18176;49.502;11.754;2023-07-22T17:39:14;96723.53;;;32.19;26.02
21185;BME280;18176;49.502;11.754;2023-07-22T17:43:18;96713.19;;;32.02;26.34
21185;BME280;18176;49.502;11.754;2023-07-22T17:47:18;96713.47;;;32.30;26.58
21185;BME280;18176;49.502;11.754;2023-07-22T17:51:21;96714.00;;;32.06;27.10
21185;BME280;18176;49.502;11.754;2023-07-22T17:55:25;96707.81;;;31.83;27.08
21185;BME280;18176;49.502;11.754;2023-07-22T17:59:26;96708.38;;;31.40;27.76
21185;BME280;18176;49.502;11.754;2023-07-22T18:03:27;96711.63;;;30.96;28.06
21185;BME280;18176;49.502;11.754;2023-07-22T18:07:30;96715.34;;;30.24;29.12
21185;BME280;18176;49.502;11.754;2023-07-22T18:11:30;96706.00;;;29.67;29.85
21185;BME280;18176;49.502;11.754;2023-07-22T18:15:31;96708.72;;;29.67;30.02
21185;BME280;18176;49.502;11.754;2023-07-22T18:19:31;96718.84;;;29.32;30.26
21185;BME280;18176;49.502;11.754;2023-07-22T18:23:35;96717.03;;;28.74;31.06
21185;BME280;18176;49.502;11.754;2023-07-22T18:27:35;96712.97;;;28.09;31.99
21185;BME280;18176;49.502;11.754;2023-07-22T18:31:36;96717.03;;;27.63;32.89
21185;BME280;18176;49.502;11.754;2023-07-22T18:35:36;96713.56;;;27.26;33.93
21185;BME280;18176;49.502;11.754;2023-07-22T18:39:39;96721.88;;;26.93;35.10
21185;BME280;18176;49.502;11.754;2023-07-22T18:43:40;96714.56;;;26.61;36.11
21185;BME280;18176;49.502;11.754;2023-07-22T18:47:40;96721.75;;;26.33;36.58
21185;BME280;18176;49.502;11.754;2023-07-22T18:51:41;96724.63;;;25.95;37.24
21185;BME280;18176;49.502;11.754;2023-07-22T18:55:44;96727.16;;;25.59;37.49
21185;BME280;18176;49.502;11.754;2023-07-22T18:59:47;96738.84;;;25.30;38.30
21185;BME280;18176;49.502;11.754;2023-07-22T19:03:48;96730.38;;;25.02;39.56
21185;BME280;18176;49.502;11.754;2023-07-22T19:07:48;96741.44;;;24.89;39.92
21185;BME280;18176;49.502;11.754;2023-07-22T19:11:51;96735.78;;;24.65;40.59
21185;BME280;18176;49.502;11.754;2023-07-22T19:15:54;96752.91;;;24.39;40.55
21185;BME280;18176;49.502;11.754;2023-07-22T19:19:56;96752.91;;;24.22;41.66
21185;BME280;18176;49.502;11.754;2023-07-22T19:23:56;96747.03;;;24.03;41.26
21185;BME280;18176;49.502;11.754;2023-07-22T19:28:00;96754.69;;;23.84;42.19
21185;BME280;18176;49.502;11.754;2023-07-22T19:32:03;96755.63;;;23.54;42.84
21185;BME280;18176;49.502;11.754;2023-07-22T19:36:09;96761.00;;;23.37;43.85
21185;BME280;18176;49.502;11.754;2023-07-22T19:40:12;96767.09;;;23.12;44.15
21185;BME280;18176;49.502;11.754;2023-07-22T19:44:15;96764.34;;;22.94;45.11
21185;BME280;18176;49.502;11.754;2023-07-22T19:48:16;96763.19;;;22.78;45.51
21185;BME280;18176;49.502;11.754;2023-07-22T19:52:17;96765.16;;;22.64;46.12
21185;BME280;18176;49.502;11.754;2023-07-22T19:56:18;96781.59;;;22.54;46.63
21185;BME280;18176;49.502;11.754;2023-07-22T20:00:21;96776.97;;;22.46;46.68
21185;BME280;18176;49.502;11.754;2023-07-22T20:04:21;96780.19;;;22.26;47.47
21185;BME280;18176;49.502;11.754;2023-07-22T20:08:23;96769.38;;;22.04;48.26
21185;BME280;18176;49.502;11.754;2023-07-22T20:12:23;96785.75;;;22.07;48.56
21185;BME280;18176;49.502;11.754;2023-07-22T20:16:26;96778.69;;;21.98;49.16
21185;BME280;18176;49.502;11.754;2023-07-22T20:20:27;96785.94;;;21.89;49.71
21185;BME280;18176;49.502;11.754;2023-07-22T20:24:29;96775.13;;;21.89;49.61
21185;BME280;18176;49.502;11.754;2023-07-22T20:28:32;96789.94;;;21.78;49.54
21185;BME280;18176;49.502;11.754;2023-07-22T20:32:36;96790.97;;;21.68;50.44
21185;BME280;18176;49.502;11.754;2023-07-22T20:36:36;96797.47;;;21.53;50.69
21185;BME280;18176;49.502;11.754;2023-07-22T20:40:37;96786.00;;;21.34;50.85
21185;BME280;18176;49.502;11.754;2023-07-22T20:44:38;96792.63;;;21.28;52.03
21185;BME280;18176;49.502;11.754;2023-07-22T20:48:41;96788.63;;;21.12;52.21
21185;BME280;18176;49.502;11.754;2023-07-22T20:52:42;96799.56;;;21.02;52.48
21185;BME280;18176;49.502;11.754;2023-07-22T20:56:43;96788.38;;;20.68;53.73
21185;BME280;18176;49.502;11.754;2023-07-22T21:00:43;96802.34;;;20.70;53.55
21185;BME280;18176;49.502;11.754;2023-07-22T21:04:47;96804.34;;;20.78;53.62